createdAt,value
2022-08-30T00:02:26.407Z,29.42
2022-08-30T00:05:09.482Z,29.36
2022-08-30T00:07:59.392Z,29.45
2022-08-30T00:10:42.061Z,29.34
2022-08-30T00:13:32.364Z,29.38
2022-08-30T00:16:21.495Z,29.39
2022-08-30T00:19:09.564Z,29.36
2022-08-30T00:21:51.407Z,29.39
2022-08-30T00:24:33.613Z,29.34
2022-08-30T00:27:22.407Z,29.36
2022-08-30T00:30:12.393Z,29.38
2022-08-30T00:32:55.652Z,29.39
2022-08-30T00:35:44.409Z,29.39
2022-08-30T00:38:26.654Z,29.38
2022-08-30T00:41:21.398Z,29.38
2022-08-30T00:44:03.824Z,29.35
2022-08-30T00:46:52.307Z,29.32
2022-08-30T00:49:36.445Z,29.41
2022-08-30T00:52:25.288Z,29.41
2022-08-30T00:55:15.280Z,29.41
2022-08-30T00:58:03.937Z,29.30
2022-08-30T01:00:54.667Z,29.31
2022-08-30T01:03:38.316Z,29.31
2022-08-30T01:06:35.375Z,29.39
2022-08-30T01:09:24.394Z,29.42
2022-08-30T01:12:06.664Z,29.46
2022-08-30T01:14:55.313Z,29.53
2022-08-30T01:17:44.275Z,29.54
2022-08-30T01:20:42.932Z,29.59
2022-08-30T01:23:29.302Z,29.63
2022-08-30T01:26:12.798Z,29.44
2022-08-30T01:29:09.439Z,29.57
2022-08-30T01:31:58.726Z,29.68
2022-08-30T01:34:40.366Z,29.74
2022-08-30T01:37:29.706Z,29.83
2022-08-30T01:40:19.488Z,29.89
2022-08-30T01:43:07.974Z,30.00
2022-08-30T01:45:51.451Z,30.19
2022-08-30T01:48:40.378Z,30.36
2022-08-30T01:51:30.375Z,30.51
2022-08-30T01:54:19.708Z,30.26
2022-08-30T01:57:01.365Z,30.23
2022-08-30T01:59:55.398Z,30.60
2022-08-30T02:02:47.693Z,30.69
2022-08-30T02:05:36.415Z,30.70
2022-08-30T02:08:18.658Z,30.50
2022-08-30T02:11:08.429Z,30.38
2022-08-30T02:13:51.745Z,30.92
2022-08-30T02:16:41.318Z,30.72
2022-08-30T02:19:23.716Z,31.21
2022-08-30T02:22:13.265Z,31.47
2022-08-30T02:25:02.395Z,31.61
2022-08-30T02:27:51.368Z,31.72
2022-08-30T02:30:33.677Z,31.76
2022-08-30T02:33:23.379Z,31.56
2022-08-30T02:36:05.645Z,31.58
2022-08-30T02:38:54.294Z,31.42
2022-08-30T02:41:43.377Z,31.52
2022-08-30T02:44:38.253Z,31.81
2022-08-30T02:47:27.396Z,31.56
2022-08-30T02:50:12.651Z,31.62
2022-08-30T02:53:01.400Z,31.65
2022-08-30T02:55:50.277Z,31.27
2022-08-30T02:58:39.396Z,31.86
2022-08-30T03:01:25.281Z,31.85
2022-08-30T03:04:16.273Z,32.02
2022-08-30T03:07:05.366Z,31.92
2022-08-30T03:09:54.006Z,31.86
2022-08-30T03:12:36.403Z,31.94
2022-08-30T03:15:25.377Z,31.96
2022-08-30T03:18:07.576Z,32.00
2022-08-30T03:20:56.388Z,32.21
2022-08-30T03:23:38.692Z,32.32
2022-08-30T03:26:27.386Z,32.56
2022-08-30T03:29:09.635Z,32.69
2022-08-30T03:32:01.447Z,32.33
2022-08-30T03:34:43.676Z,32.63
2022-08-30T03:37:33.283Z,32.70
2022-08-30T03:40:18.060Z,32.78
2022-08-30T03:43:13.412Z,32.85
2022-08-30T03:46:02.118Z,33.00
2022-08-30T03:48:45.493Z,32.61
2022-08-30T03:51:34.233Z,32.96
2022-08-30T03:54:17.362Z,33.04
2022-08-30T03:56:59.594Z,32.54
2022-08-30T03:59:48.362Z,32.96
2022-08-30T04:02:36.793Z,32.71
2022-08-30T04:05:19.364Z,32.99
2022-08-30T04:08:08.299Z,33.23
2022-08-30T04:10:57.375Z,32.80
2022-08-30T04:13:46.358Z,33.11
2022-08-30T04:16:28.633Z,33.06
2022-08-30T04:19:17.380Z,33.28
2022-08-30T04:21:59.567Z,33.21
2022-08-30T04:24:49.378Z,33.34
2022-08-30T04:27:31.653Z,33.46
2022-08-30T04:30:21.365Z,33.88
2022-08-30T04:33:03.686Z,33.97
2022-08-30T04:35:56.393Z,34.46
2022-08-30T04:38:40.427Z,34.41
2022-08-30T04:41:32.695Z,34.50
2022-08-30T04:44:27.258Z,34.51
2022-08-30T04:47:22.365Z,34.86
2022-08-30T04:50:12.494Z,35.49
2022-08-30T04:52:55.641Z,35.85
2022-08-30T04:55:44.310Z,36.03
2022-08-30T04:58:26.722Z,35.90
2022-08-30T05:01:45.694Z,35.55
2022-08-30T05:04:28.654Z,36.27
2022-08-30T05:07:17.408Z,36.27
2022-08-30T05:09:59.810Z,36.23
2022-08-30T05:12:48.381Z,35.98
2022-08-30T05:15:30.557Z,36.57
2022-08-30T05:18:20.375Z,36.57
2022-08-30T05:21:17.637Z,36.40
2022-08-30T05:24:10.364Z,35.49
2022-08-30T05:26:52.572Z,35.84
2022-08-30T05:29:41.457Z,36.37
2022-08-30T05:32:23.739Z,35.76
2022-08-30T05:35:14.402Z,35.97
2022-08-30T05:37:56.721Z,35.95
2022-08-30T05:40:50.436Z,35.83
2022-08-30T05:43:33.554Z,35.80
2022-08-30T05:46:30.467Z,35.66
2022-08-30T05:49:25.283Z,35.64
2022-08-30T05:52:16.578Z,35.31
2022-08-30T05:55:06.435Z,35.21
2022-08-30T05:57:55.617Z,35.22
2022-08-30T06:00:38.298Z,35.22
2022-08-30T06:03:27.125Z,35.51
2022-08-30T06:06:11.404Z,35.51
2022-08-30T06:08:59.626Z,35.26
2022-08-30T06:11:42.621Z,35.77
2022-08-30T06:14:31.664Z,35.89
2022-08-30T06:17:14.365Z,36.14
2022-08-30T06:20:03.306Z,36.36
2022-08-30T06:22:52.284Z,36.13
2022-08-30T06:25:44.555Z,36.30
2022-08-30T06:28:26.661Z,36.63
2022-08-30T06:31:16.717Z,36.79
2022-08-30T06:33:59.363Z,36.74
2022-08-30T06:36:41.881Z,36.76
2022-08-30T06:39:30.387Z,36.24
2022-08-30T06:42:19.368Z,36.02
2022-08-30T06:45:11.047Z,36.03
2022-08-30T06:48:00.380Z,36.13
2022-08-30T06:50:48.650Z,36.12
2022-08-30T06:53:31.306Z,35.32
2022-08-30T06:56:20.290Z,35.49
2022-08-30T06:59:03.600Z,35.24
2022-08-30T07:01:52.401Z,34.92
2022-08-30T07:04:34.746Z,35.29
2022-08-30T07:07:23.377Z,34.86
2022-08-30T07:10:05.708Z,34.89
2022-08-30T07:12:54.407Z,35.18
2022-08-30T07:15:38.113Z,34.74
2022-08-30T07:18:46.305Z,34.96
2022-08-30T07:21:46.416Z,35.22
2022-08-30T07:24:28.467Z,35.32
2022-08-30T07:27:17.373Z,35.46
2022-08-30T07:30:05.643Z,35.53
2022-08-30T07:32:48.682Z,35.59
2022-08-30T07:35:30.602Z,35.70
2022-08-30T07:38:19.382Z,35.91
2022-08-30T07:41:02.479Z,35.49
2022-08-30T07:43:51.426Z,35.84
2022-08-30T07:46:33.911Z,35.66
2022-08-30T07:49:28.385Z,35.83
2022-08-30T07:52:17.763Z,35.72
2022-08-30T07:54:59.399Z,35.81
2022-08-30T07:57:47.714Z,35.77
2022-08-30T08:00:30.381Z,35.88
2022-08-30T08:03:18.751Z,35.77
2022-08-30T08:06:01.502Z,35.91
2022-08-30T08:08:53.635Z,36.03
2022-08-30T08:11:43.379Z,36.12
2022-08-30T08:14:25.656Z,35.95
2022-08-30T08:17:15.413Z,36.06
2022-08-30T08:20:03.633Z,36.18
2022-08-30T08:22:45.387Z,35.88
2022-08-30T08:25:34.369Z,35.90
2022-08-30T08:28:24.352Z,35.51
2022-08-30T08:31:27.360Z,35.79
2022-08-30T08:34:23.352Z,35.99
2022-08-30T08:37:12.303Z,35.84
2022-08-30T08:39:54.764Z,35.73
2022-08-30T08:43:20.286Z,35.60
2022-08-30T08:46:11.618Z,35.67
2022-08-30T08:49:05.390Z,35.36
2022-08-30T08:52:19.218Z,35.35
2022-08-30T08:55:16.375Z,35.30
2022-08-30T08:58:05.419Z,35.45
2022-08-30T09:00:47.669Z,35.59
2022-08-30T09:03:37.389Z,35.71
2022-08-30T09:06:52.654Z,35.70
2022-08-30T09:09:45.452Z,35.60
2022-08-30T09:12:28.711Z,35.61
2022-08-30T09:15:30.455Z,35.62
2022-08-30T09:18:19.842Z,35.55
2022-08-30T09:21:18.467Z,35.59
2022-08-30T09:24:20.667Z,35.26
2022-08-30T09:27:38.399Z,35.01
2022-08-30T09:30:39.437Z,34.83
2022-08-30T09:33:28.670Z,34.63
2022-08-30T09:36:34.415Z,34.65
2022-08-30T09:39:23.740Z,34.11
2022-08-30T09:42:42.403Z,34.38
2022-08-30T09:45:38.611Z,33.98
2022-08-30T09:48:48.392Z,33.44
2022-08-30T09:51:37.712Z,33.47
2022-08-30T09:54:45.721Z,33.65
2022-08-30T09:58:05.380Z,33.39
2022-08-30T10:01:45.614Z,33.21
2022-08-30T10:04:48.362Z,33.28
2022-08-30T10:08:01.295Z,33.28
2022-08-30T10:11:04.376Z,33.07
2022-08-30T10:14:19.723Z,32.99
2022-08-30T10:17:17.491Z,33.06
2022-08-30T10:20:26.664Z,33.11
2022-08-30T10:23:34.287Z,33.12
2022-08-30T10:26:45.364Z,33.04
2022-08-30T10:29:47.271Z,33.18
2022-08-30T10:33:12.260Z,33.23
2022-08-30T10:36:05.276Z,33.37
2022-08-30T10:39:00.540Z,33.17
2022-08-30T10:42:06.363Z,33.28
2022-08-30T10:45:04.250Z,33.45
2022-08-30T10:48:08.710Z,33.51
2022-08-30T10:51:00.234Z,33.87
2022-08-30T10:54:09.390Z,34.07
2022-08-30T10:57:07.229Z,33.97
2022-08-30T11:00:08.282Z,33.94
2022-08-30T11:03:21.405Z,34.04
2022-08-30T11:06:17.947Z,33.90
2022-08-30T11:09:12.367Z,34.23
2022-08-30T11:12:29.380Z,34.20
2022-08-30T11:15:34.383Z,34.14
2022-08-30T11:18:17.534Z,33.94
2022-08-30T11:21:30.275Z,34.00
2022-08-30T11:24:24.571Z,34.07
2022-08-30T11:27:15.377Z,33.96
2022-08-30T11:29:57.550Z,33.88
2022-08-30T11:33:39.357Z,34.01
2022-08-30T11:36:37.812Z,34.05
2022-08-30T11:40:04.375Z,34.02
2022-08-30T11:42:56.353Z,34.08
2022-08-30T11:45:45.338Z,34.07
2022-08-30T11:48:56.306Z,34.03
2022-08-30T11:52:27.594Z,34.00
2022-08-30T11:55:43.265Z,34.16
2022-08-30T11:59:00.258Z,34.17
2022-08-30T12:01:56.586Z,34.00
2022-08-30T12:04:46.676Z,34.05
2022-08-30T12:08:12.262Z,34.10
2022-08-30T12:11:16.360Z,34.11
2022-08-30T12:14:01.659Z,34.08
2022-08-30T12:17:15.279Z,33.89
2022-08-30T12:19:58.545Z,33.84
2022-08-30T12:22:48.242Z,33.87
2022-08-30T12:25:38.665Z,33.84
2022-08-30T12:28:33.363Z,33.90
2022-08-30T12:31:23.037Z,33.86
2022-08-30T12:34:12.266Z,33.82
2022-08-30T12:37:19.381Z,33.85
2022-08-30T12:40:07.365Z,33.82
2022-08-30T12:43:08.274Z,33.73
2022-08-30T12:45:52.006Z,33.69
2022-08-30T12:48:42.347Z,33.69
2022-08-30T12:51:42.448Z,33.71
2022-08-30T12:54:38.271Z,33.66
2022-08-30T12:57:52.672Z,33.63
2022-08-30T13:01:00.483Z,33.60
2022-08-30T13:03:55.270Z,33.54
2022-08-30T13:06:58.295Z,33.41
2022-08-30T13:09:56.368Z,33.18
2022-08-30T13:12:51.218Z,33.14
2022-08-30T13:15:43.394Z,33.08
2022-08-30T13:18:44.699Z,33.08
2022-08-30T13:21:41.393Z,33.14
2022-08-30T13:24:25.635Z,33.02
2022-08-30T13:27:17.356Z,32.90
2022-08-30T13:30:00.028Z,32.85
2022-08-30T13:32:49.420Z,32.82
2022-08-30T13:35:32.702Z,32.77
2022-08-30T13:38:21.388Z,32.78
2022-08-30T13:41:03.750Z,32.72
2022-08-30T13:44:11.295Z,32.74
2022-08-30T13:47:32.157Z,32.72
2022-08-30T13:50:08.370Z,32.70
2022-08-30T13:52:51.673Z,32.68
2022-08-30T13:55:40.665Z,32.71
2022-08-30T13:58:22.544Z,32.72
2022-08-30T14:01:11.405Z,32.77
2022-08-30T14:07:20.393Z,32.78
2022-08-30T14:13:17.357Z,32.70
2022-08-30T14:19:10.366Z,32.63
2022-08-30T14:21:53.731Z,32.56
2022-08-30T14:24:42.349Z,32.49
2022-08-30T14:27:32.380Z,32.43
2022-08-30T14:30:21.373Z,32.39
2022-08-30T14:33:10.339Z,32.41
2022-08-30T14:36:01.674Z,32.33
2022-08-30T14:38:44.419Z,32.32
2022-08-30T14:41:32.642Z,32.22
2022-08-30T14:44:14.385Z,32.27
2022-08-30T14:46:57.132Z,32.32
2022-08-30T14:49:46.270Z,32.30
2022-08-30T14:52:40.340Z,32.34
2022-08-30T14:55:22.650Z,32.36
2022-08-30T14:58:11.271Z,32.16
2022-08-30T15:01:00.784Z,32.17
2022-08-30T15:03:49.349Z,32.09
2022-08-30T15:06:34.741Z,32.05
2022-08-30T15:09:28.279Z,32.11
2022-08-30T15:12:23.355Z,32.14
2022-08-30T15:15:06.789Z,32.18
2022-08-30T15:17:58.330Z,32.17
2022-08-30T15:20:57.385Z,32.15
2022-08-30T15:23:39.641Z,32.09
2022-08-30T15:26:29.299Z,32.08
2022-08-30T15:29:11.689Z,31.93
2022-08-30T15:32:00.387Z,32.09
2022-08-30T15:34:55.707Z,32.12
2022-08-30T15:37:38.827Z,32.04
2022-08-30T15:40:27.515Z,32.07
2022-08-30T15:43:16.445Z,32.08
2022-08-30T15:45:58.635Z,32.08
2022-08-30T15:48:47.396Z,31.97
2022-08-30T15:51:30.777Z,31.96
2022-08-30T15:54:31.339Z,31.87
2022-08-30T15:57:21.245Z,31.82
2022-08-30T16:00:11.531Z,31.90
2022-08-30T16:02:57.350Z,31.86
2022-08-30T16:05:45.676Z,31.87
2022-08-30T16:08:27.349Z,31.86
2022-08-30T16:11:25.262Z,31.89
2022-08-30T16:14:21.472Z,31.92
2022-08-30T16:17:09.375Z,31.76
2022-08-30T16:19:52.230Z,31.82
2022-08-30T16:22:45.809Z,31.75
2022-08-30T16:25:39.899Z,31.79
2022-08-30T16:28:29.725Z,31.79
2022-08-30T16:31:13.301Z,31.72
2022-08-30T16:34:04.269Z,31.78
2022-08-30T16:36:47.089Z,31.78
2022-08-30T16:39:36.354Z,31.67
2022-08-30T16:42:20.985Z,31.66
2022-08-30T16:45:03.294Z,31.64
2022-08-30T16:47:59.368Z,31.58
2022-08-30T16:50:44.735Z,31.63
2022-08-30T16:53:33.514Z,31.63
2022-08-30T16:56:22.479Z,31.62
2022-08-30T16:59:14.110Z,31.45
2022-08-30T17:02:02.419Z,31.60
2022-08-30T17:04:46.941Z,31.58
2022-08-30T17:07:44.684Z,31.57
2022-08-30T17:10:35.133Z,31.48
2022-08-30T17:13:31.101Z,31.49
2022-08-30T17:16:27.874Z,31.53
2022-08-30T17:19:26.846Z,31.44
2022-08-30T17:22:12.286Z,31.48
2022-08-30T17:25:02.236Z,31.46
2022-08-30T17:27:45.377Z,31.49
2022-08-30T17:30:34.336Z,31.59
2022-08-30T17:33:23.156Z,31.49
2022-08-30T17:36:12.370Z,31.39
2022-08-30T17:39:04.273Z,31.45
2022-08-30T17:42:00.901Z,31.45
2022-08-30T17:44:50.815Z,31.35
2022-08-30T17:47:36.050Z,31.38
2022-08-30T17:50:25.509Z,31.50
2022-08-30T17:53:10.115Z,31.51
2022-08-30T17:55:59.099Z,31.41
2022-08-30T17:58:42.609Z,31.31
2022-08-30T18:01:31.459Z,31.38
2022-08-30T18:04:14.426Z,31.34
2022-08-30T18:07:08.356Z,31.31
2022-08-30T18:09:54.574Z,31.32
2022-08-30T18:12:49.115Z,31.30
2022-08-30T18:15:44.251Z,31.29
2022-08-30T18:18:33.119Z,31.27
2022-08-30T18:21:28.449Z,31.26
2022-08-30T18:24:18.341Z,31.32
2022-08-30T18:27:07.111Z,31.35
2022-08-30T18:29:55.561Z,31.28
2022-08-30T18:32:38.141Z,31.30
2022-08-30T18:35:26.933Z,31.27
2022-08-30T18:38:08.351Z,31.27
2022-08-30T18:40:57.390Z,31.30
2022-08-30T18:43:40.360Z,31.32
2022-08-30T18:46:29.509Z,31.28
2022-08-30T18:49:16.384Z,31.29
2022-08-30T18:52:06.115Z,31.00
2022-08-30T18:54:52.880Z,31.17
2022-08-30T18:57:42.345Z,31.22
2022-08-30T19:00:25.407Z,31.27
2022-08-30T19:03:14.359Z,31.29
2022-08-30T19:05:56.526Z,31.26
2022-08-30T19:08:49.021Z,31.28
2022-08-30T19:11:31.330Z,31.28
2022-08-30T19:14:20.365Z,31.35
2022-08-30T19:17:06.744Z,31.35
2022-08-30T19:19:56.258Z,31.26
2022-08-30T19:23:06.339Z,31.23
2022-08-30T19:25:52.740Z,31.29
2022-08-30T19:28:37.284Z,31.29
2022-08-30T19:31:26.388Z,31.30
2022-08-30T19:34:09.470Z,31.31
2022-08-30T19:36:58.340Z,31.26
2022-08-30T19:39:41.801Z,31.22
2022-08-30T19:42:31.096Z,31.21
2022-08-30T19:45:14.674Z,31.17
2022-08-30T19:48:05.396Z,31.21
2022-08-30T19:50:47.835Z,31.19
2022-08-30T19:53:36.370Z,31.14
2022-08-30T19:56:18.524Z,31.15
2022-08-30T19:59:07.384Z,31.13
2022-08-30T20:01:49.608Z,31.15
2022-08-30T20:04:40.998Z,31.14
2022-08-30T20:07:31.119Z,31.10
2022-08-30T20:10:25.895Z,31.05
2022-08-30T20:13:09.352Z,31.07
2022-08-30T20:16:10.973Z,31.09
2022-08-30T20:19:03.331Z,31.05
2022-08-30T20:21:47.084Z,31.07
2022-08-30T20:24:39.383Z,31.06
2022-08-30T20:27:26.333Z,31.09
2022-08-30T20:30:17.347Z,31.10
2022-08-30T20:33:01.578Z,31.03
2022-08-30T20:35:52.057Z,31.03
2022-08-30T20:38:34.439Z,31.01
2022-08-30T20:41:25.336Z,31.02
2022-08-30T20:44:07.376Z,30.99
2022-08-30T20:47:00.258Z,31.02
2022-08-30T20:49:49.233Z,31.01
2022-08-30T20:52:31.584Z,31.08
2022-08-30T20:55:20.995Z,31.07
2022-08-30T20:58:09.290Z,31.06
2022-08-30T21:00:52.846Z,31.03
2022-08-30T21:03:34.050Z,31.06
2022-08-30T21:06:24.339Z,31.09
2022-08-30T21:09:14.460Z,31.08
2022-08-30T21:11:57.347Z,31.05
2022-08-30T21:14:52.190Z,31.09
2022-08-30T21:17:41.133Z,31.06
2022-08-30T21:20:24.236Z,31.05
2022-08-30T21:23:13.093Z,31.03
2022-08-30T21:25:55.743Z,30.97
2022-08-30T21:28:44.348Z,30.95
2022-08-30T21:31:31.379Z,30.89
2022-08-30T21:34:20.248Z,30.94
2022-08-30T21:37:02.646Z,30.93
2022-08-30T21:39:51.268Z,30.89
2022-08-30T21:42:33.578Z,30.85
2022-08-30T21:45:22.979Z,30.90
2022-08-30T21:48:04.377Z,30.83
2022-08-30T21:50:54.030Z,30.81
2022-08-30T21:53:36.393Z,30.72
2022-08-30T21:56:29.294Z,30.76
2022-08-30T21:59:12.594Z,30.76
2022-08-30T22:02:03.022Z,30.77
2022-08-30T22:04:52.099Z,30.71
2022-08-30T22:07:40.891Z,30.68
2022-08-30T22:10:23.345Z,30.68
2022-08-30T22:13:14.061Z,30.67
2022-08-30T22:16:03.005Z,30.68
2022-08-30T22:18:46.412Z,30.63
2022-08-30T22:21:37.087Z,30.67
2022-08-30T22:24:20.405Z,30.69
2022-08-30T22:27:09.976Z,30.69
2022-08-30T22:29:52.519Z,30.61
2022-08-30T22:32:41.125Z,30.57
2022-08-30T22:35:23.874Z,30.54
2022-08-30T22:38:12.406Z,30.56
2022-08-30T22:40:59.644Z,30.60
2022-08-30T22:43:48.171Z,30.55
2022-08-30T22:46:34.326Z,30.52
2022-08-30T22:52:12.001Z,30.56
2022-08-30T22:55:01.266Z,30.62
2022-08-30T22:57:45.628Z,30.58
2022-08-30T23:00:35.240Z,30.56
2022-08-30T23:03:25.248Z,30.54
2022-08-30T23:06:14.388Z,30.58
2022-08-30T23:08:56.315Z,30.55
2022-08-30T23:11:45.388Z,30.55
2022-08-30T23:14:27.402Z,30.54
2022-08-30T23:17:16.352Z,30.57
2022-08-30T23:20:00.186Z,30.57
2022-08-30T23:22:49.347Z,30.56
2022-08-30T23:25:58.344Z,30.52
2022-08-30T23:29:04.658Z,30.57
2022-08-30T23:32:05.120Z,30.57
2022-08-30T23:35:13.042Z,30.60
2022-08-30T23:38:14.324Z,30.62
2022-08-30T23:41:21.025Z,30.61
2022-08-30T23:44:28.013Z,30.70
2022-08-30T23:47:28.799Z,30.72
2022-08-30T23:50:39.212Z,30.78
2022-08-30T23:53:39.709Z,30.80
2022-08-30T23:56:51.341Z,30.74
2022-08-30T23:59:59.591Z,30.76
